»·PEaware :: N921VN M94-S36

N921VN :: M94-S36

FLIGHT INFORMATION

Flight Status: Arrived
Operator: Privately registered:
United States
More flights under this callsign
Pilot: Kevin M. (7)
Aircraft: BEECH AIRCRAFT BARON
(BE58)
More flights by this aircraft type
Origin: M94 Desert Aire
United States
Destination: S36 Norman Grier Field
United States
More flights between these airports :: More routes between these airports
Route:
File this flight plan on PilotEdge
Remarks: Dead reckoning the WA ABC challenge!
Altitude:
(Current/Filed)
6,500ft
Speed:
(Current/Filed)
180kts
Departed: 20-Apr-20 04:41 PM
Arrived: 20-Apr-20 05:29 PM
Distance/Time
Traveled:
26nm/0:47
Distance/Time
To Go:
Arrived

Flight Plot

Page will automatically refresh every two minutes.

Flight plan parsing failed; only flown route is shown


Map Options




Map Legend


Flown Route
Filed Route
Departure Airport
Arrival Airport
Navaid (VOR, NDB)
Fix

Horizontal Profiles

Position Reports

Time Latitude Longitude Heading Altitude Ground
Speed
20-Apr-20 16:38 46.684510 -119.913886 116 585ft 0kts
20-Apr-20 16:39 46.684510 -119.913886 116 585ft 0kts
20-Apr-20 16:40 46.684586 -119.913611 38 586ft 2kts
20-Apr-20 16:41 46.691467 -119.932681 301 937ft 123kts
20-Apr-20 16:42 46.722154 -119.951844 358 2616ft 137kts
20-Apr-20 16:43 46.765239 -119.942562 28 3343ft 177kts
20-Apr-20 16:44 46.812166 -119.924788 342 3866ft 185kts
20-Apr-20 16:45 46.861599 -119.944673 342 4377ft 182kts
20-Apr-20 16:45 46.902926 -119.958306 345 4534ft 186kts
20-Apr-20 16:46 46.945231 -119.992650 291 4530ft 184kts
20-Apr-20 16:48 46.942946 -120.081107 268 4529ft 186kts
20-Apr-20 16:48 46.941692 -120.144480 272 4531ft 185kts
20-Apr-20 16:49 46.943986 -120.220598 275 4536ft 186kts
20-Apr-20 16:50 46.951359 -120.295643 280 4537ft 185kts
20-Apr-20 16:52 46.961263 -120.382607 280 4536ft 184kts
20-Apr-20 16:52 46.968017 -120.444517 277 4537ft 184kts
20-Apr-20 16:53 46.990125 -120.510665 301 4536ft 184kts
20-Apr-20 16:54 47.016392 -120.575976 301 4537ft 184kts
20-Apr-20 16:55 47.042909 -120.640939 300 4537ft 188kts
20-Apr-20 16:56 47.074175 -120.703031 315 4539ft 190kts
20-Apr-20 16:57 47.112262 -120.756944 316 4539ft 190kts
20-Apr-20 16:58 47.139455 -120.822854 296 4537ft 190kts
20-Apr-20 16:59 47.158798 -120.895424 290 4539ft 190kts
20-Apr-20 17:00 47.176414 -120.969479 289 4538ft 190kts
20-Apr-20 17:01 47.194379 -121.042909 295 4537ft 189kts
20-Apr-20 17:02 47.217773 -121.113003 295 4538ft 190kts
20-Apr-20 17:03 47.241682 -121.182684 298 4537ft 191kts
20-Apr-20 17:04 47.267434 -121.251504 308 4593ft 187kts
20-Apr-20 17:05 47.292325 -121.294108 307 5363ft 168kts
20-Apr-20 17:06 47.316905 -121.350392 288 6357ft 161kts
20-Apr-20 17:07 47.319451 -121.415381 267 7355ft 158kts
20-Apr-20 17:08 47.315923 -121.480138 266 8355ft 156kts
20-Apr-20 17:09 47.314905 -121.547243 281 8873ft 172kts
20-Apr-20 17:10 47.324059 -121.617815 281 9176ft 176kts
20-Apr-20 17:11 47.337480 -121.687670 282 9480ft 176kts
20-Apr-20 17:12 47.373815 -121.731222 328 9789ft 179kts
20-Apr-20 17:13 47.414930 -121.771741 301 10085ft 176kts
20-Apr-20 17:14 47.433107 -121.838503 289 10397ft 175kts
20-Apr-20 17:15 47.422521 -121.912059 222 6916ft 206kts
20-Apr-20 17:16 47.369186 -121.923163 179 4308ft 193kts
20-Apr-20 17:17 47.316017 -121.929585 207 4514ft 193kts
20-Apr-20 17:18 47.295273 -121.993315 265 4723ft 186kts
20-Apr-20 17:19 47.289088 -122.071670 265 4501ft 199kts
20-Apr-20 17:20 47.294125 -122.149952 285 3998ft 185kts
20-Apr-20 17:21 47.314667 -122.207760 349 1735ft 128kts
20-Apr-20 17:22 47.343849 -122.217406 314 1450ft 109kts
20-Apr-20 17:23 47.379311 -122.212102 18 1664ft 183kts
20-Apr-20 17:24 47.366055 -122.167585 132 1884ft 180kts
20-Apr-20 17:25 47.337549 -122.109180 110 1534ft 184kts
20-Apr-20 17:26 47.361940 -122.106099 264 1099ft 117kts
20-Apr-20 17:27 47.336922 -122.103526 172 475ft 49kts
20-Apr-20 17:28 47.335556 -122.102889 353 475ft 0kts
20-Apr-20 17:29 47.335613 -122.102900 352 475ft 0kts
20-Apr-20 17:30 46.570094 -120.538136 105 1062ft 0kts
20-Apr-20 17:31 46.570097 -120.538314 268 1062ft 0kts
20-Apr-20 17:32 46.570097 -120.538314 268 1062ft 0kts
20-Apr-20 17:33 46.570097 -120.538314 268 1062ft 0kts
20-Apr-20 17:34 46.570097 -120.538314 268 1062ft 0kts

Navigation Log

Ident Type
Flight plan parsing failed, navigation log unavailable